sensor_id;sensor_type;location;lat;lon;timestamp;temperature;humidity
16118;DHT22;8163;50.118;5.342;2023-03-04T00:00:06;-1.00;99.90
16118;DHT22;8163;50.118;5.342;2023-03-04T00:02:34;-1.00;99.90
16118;DHT22;8163;50.118;5.342;2023-03-04T00:05:03;-0.90;99.90
16118;DHT22;8163;50.118;5.342;2023-03-04T00:07:30;-1.00;99.90
16118;DHT22;8163;50.118;5.342;2023-03-04T00:09:58;-0.90;99.90
16118;DHT22;8163;50.118;5.342;2023-03-04T00:12:25;-0.90;99.90
16118;DHT22;8163;50.118;5.342;2023-03-04T00:14:52;-0.90;99.90
16118;DHT22;8163;50.118;5.342;2023-03-04T00:17:22;-0.80;99.90
16118;DHT22;8163;50.118;5.342;2023-03-04T00:19:49;-0.80;99.90
16118;DHT22;8163;50.118;5.342;2023-03-04T00:22:17;-0.80;99.90
16118;DHT22;8163;50.118;5.342;2023-03-04T00:24:44;-0.80;99.90
16118;DHT22;8163;50.118;5.342;2023-03-04T00:27:12;-0.70;99.90
16118;DHT22;8163;50.118;5.342;2023-03-04T00:29:39;-0.70;99.90
16118;DHT22;8163;50.118;5.342;2023-03-04T00:32:06;-0.70;99.90
16118;DHT22;8163;50.118;5.342;2023-03-04T00:34:33;-0.70;99.90
16118;DHT22;8163;50.118;5.342;2023-03-04T00:37:05;-0.70;99.90
16118;DHT22;8163;50.118;5.342;2023-03-04T00:39:32;-0.60;99.90
16118;DHT22;8163;50.118;5.342;2023-03-04T00:41:58;-0.60;99.90
16118;DHT22;8163;50.118;5.342;2023-03-04T00:44:27;-0.70;99.90
16118;DHT22;8163;50.118;5.342;2023-03-04T00:46:54;-0.60;99.90
16118;DHT22;8163;50.118;5.342;2023-03-04T00:49:21;-0.60;99.90
16118;DHT22;8163;50.118;5.342;2023-03-04T00:51:48;-0.60;99.90
16118;DHT22;8163;50.118;5.342;2023-03-04T00:54:15;-0.60;99.90
16118;DHT22;8163;50.118;5.342;2023-03-04T00:56:42;-0.60;99.90
16118;DHT22;8163;50.118;5.342;2023-03-04T00:59:10;-0.60;99.90
16118;DHT22;8163;50.118;5.342;2023-03-04T01:01:38;-0.50;99.90
16118;DHT22;8163;50.118;5.342;2023-03-04T01:04:05;-0.50;99.90
16118;DHT22;8163;50.118;5.342;2023-03-04T01:06:32;-0.50;99.90
16118;DHT22;8163;50.118;5.342;2023-03-04T01:08:59;-0.50;99.90
16118;DHT22;8163;50.118;5.342;2023-03-04T01:11:26;-0.40;99.90
16118;DHT22;8163;50.118;5.342;2023-03-04T01:13:53;-0.40;99.90
16118;DHT22;8163;50.118;5.342;2023-03-04T01:16:20;-0.40;99.90
16118;DHT22;8163;50.118;5.342;2023-03-04T01:18:49;-0.40;99.90
16118;DHT22;8163;50.118;5.342;2023-03-04T01:21:15;-0.40;99.90
16118;DHT22;8163;50.118;5.342;2023-03-04T01:23:42;-0.40;99.90
16118;DHT22;8163;50.118;5.342;2023-03-04T01:26:09;-0.30;99.90
16118;DHT22;8163;50.118;5.342;2023-03-04T01:28:36;-0.30;99.90
16118;DHT22;8163;50.118;5.342;2023-03-04T01:31:04;-0.30;99.90
16118;DHT22;8163;50.118;5.342;2023-03-04T01:33:31;-0.30;99.90
16118;DHT22;8163;50.118;5.342;2023-03-04T01:36:04;-0.30;99.90
16118;DHT22;8163;50.118;5.342;2023-03-04T01:38:31;-0.30;99.90
16118;DHT22;8163;50.118;5.342;2023-03-04T01:40:58;-0.30;99.90
16118;DHT22;8163;50.118;5.342;2023-03-04T01:43:27;-0.30;99.90
16118;DHT22;8163;50.118;5.342;2023-03-04T01:45:55;-0.30;99.90
16118;DHT22;8163;50.118;5.342;2023-03-04T01:48:27;-0.30;99.90
16118;DHT22;8163;50.118;5.342;2023-03-04T01:50:54;-0.30;99.90
16118;DHT22;8163;50.118;5.342;2023-03-04T01:53:25;-0.30;99.90
16118;DHT22;8163;50.118;5.342;2023-03-04T01:55:53;-0.30;99.90
16118;DHT22;8163;50.118;5.342;2023-03-04T01:58:29;-0.30;99.90
16118;DHT22;8163;50.118;5.342;2023-03-04T02:00:58;-0.30;99.90
16118;DHT22;8163;50.118;5.342;2023-03-04T02:03:32;-0.30;99.90
16118;DHT22;8163;50.118;5.342;2023-03-04T02:05:59;-0.40;99.90
16118;DHT22;8163;50.118;5.342;2023-03-04T02:08:28;-0.30;99.90
16118;DHT22;8163;50.118;5.342;2023-03-04T02:10:55;-0.40;99.90
16118;DHT22;8163;50.118;5.342;2023-03-04T02:13:22;-0.40;99.90
16118;DHT22;8163;50.118;5.342;2023-03-04T02:15:49;-0.40;99.90
16118;DHT22;8163;50.118;5.342;2023-03-04T02:18:20;-0.40;99.90
16118;DHT22;8163;50.118;5.342;2023-03-04T02:21:01;-0.40;99.90
16118;DHT22;8163;50.118;5.342;2023-03-04T02:23:36;-0.40;99.90
16118;DHT22;8163;50.118;5.342;2023-03-04T02:26:12;-0.40;99.90
16118;DHT22;8163;50.118;5.342;2023-03-04T02:28:39;-0.50;99.90
16118;DHT22;8163;50.118;5.342;2023-03-04T02:31:13;-0.40;99.90
16118;DHT22;8163;50.118;5.342;2023-03-04T02:33:46;-0.50;99.90
16118;DHT22;8163;50.118;5.342;2023-03-04T02:36:13;-0.40;99.90
16118;DHT22;8163;50.118;5.342;2023-03-04T02:38:40;-0.40;99.90
16118;DHT22;8163;50.118;5.342;2023-03-04T02:41:08;-0.40;99.90
16118;DHT22;8163;50.118;5.342;2023-03-04T02:43:39;-0.40;99.90
16118;DHT22;8163;50.118;5.342;2023-03-04T02:46:10;-0.40;99.90
16118;DHT22;8163;50.118;5.342;2023-03-04T02:48:38;-0.40;99.90
16118;DHT22;8163;50.118;5.342;2023-03-04T02:51:06;-0.40;99.90
16118;DHT22;8163;50.118;5.342;2023-03-04T02:53:33;-0.40;99.90
16118;DHT22;8163;50.118;5.342;2023-03-04T02:56:00;-0.40;99.90
16118;DHT22;8163;50.118;5.342;2023-03-04T02:58:27;-0.40;99.90
16118;DHT22;8163;50.118;5.342;2023-03-04T03:00:55;-0.40;99.90
16118;DHT22;8163;50.118;5.342;2023-03-04T03:03:22;-0.40;99.90
16118;DHT22;8163;50.118;5.342;2023-03-04T03:05:51;-0.40;99.90
16118;DHT22;8163;50.118;5.342;2023-03-04T03:08:19;-0.40;99.90
16118;DHT22;8163;50.118;5.342;2023-03-04T03:10:46;-0.40;99.90
16118;DHT22;8163;50.118;5.342;2023-03-04T03:13:13;-0.30;99.90
16118;DHT22;8163;50.118;5.342;2023-03-04T03:15:40;-0.30;99.90
16118;DHT22;8163;50.118;5.342;2023-03-04T03:18:09;-0.30;99.90
16118;DHT22;8163;50.118;5.342;2023-03-04T03:20:36;-0.30;99.90
16118;DHT22;8163;50.118;5.342;2023-03-04T03:23:04;-0.30;99.90
16118;DHT22;8163;50.118;5.342;2023-03-04T03:25:31;-0.30;99.90
16118;DHT22;8163;50.118;5.342;2023-03-04T03:28:04;-0.30;99.90
16118;DHT22;8163;50.118;5.342;2023-03-04T03:30:36;-0.20;99.90
16118;DHT22;8163;50.118;5.342;2023-03-04T03:33:11;-0.20;99.90
16118;DHT22;8163;50.118;5.342;2023-03-04T03:35:40;-0.20;99.90
16118;DHT22;8163;50.118;5.342;2023-03-04T03:38:07;-0.20;99.90
16118;DHT22;8163;50.118;5.342;2023-03-04T03:40:36;-0.20;99.90
16118;DHT22;8163;50.118;5.342;2023-03-04T03:43:03;-0.20;99.90
16118;DHT22;8163;50.118;5.342;2023-03-04T03:45:31;-0.10;99.90
16118;DHT22;8163;50.118;5.342;2023-03-04T03:47:58;-0.10;99.90
16118;DHT22;8163;50.118;5.342;2023-03-04T03:50:26;-0.10;99.90
16118;DHT22;8163;50.118;5.342;2023-03-04T03:52:54;-0.10;99.90
16118;DHT22;8163;50.118;5.342;2023-03-04T03:55:22;0.00;99.90
16118;DHT22;8163;50.118;5.342;2023-03-04T03:57:50;0.00;99.90
16118;DHT22;8163;50.118;5.342;2023-03-04T04:00:17;0.00;99.90
16118;DHT22;8163;50.118;5.342;2023-03-04T04:02:44;0.00;99.90
16118;DHT22;8163;50.118;5.342;2023-03-04T04:05:12;0.10;99.90
16118;DHT22;8163;50.118;5.342;2023-03-04T04:07:40;0.10;99.90
16118;DHT22;8163;50.118;5.342;2023-03-04T04:10:09;0.10;99.90
16118;DHT22;8163;50.118;5.342;2023-03-04T04:12:36;0.10;99.90
16118;DHT22;8163;50.118;5.342;2023-03-04T04:15:04;0.10;99.90
16118;DHT22;8163;50.118;5.342;2023-03-04T04:17:31;0.10;99.90
16118;DHT22;8163;50.118;5.342;2023-03-04T04:19:58;0.20;99.90
16118;DHT22;8163;50.118;5.342;2023-03-04T04:22:25;0.20;99.90
16118;DHT22;8163;50.118;5.342;2023-03-04T04:24:54;0.20;99.90
16118;DHT22;8163;50.118;5.342;2023-03-04T04:27:20;0.20;99.90
16118;DHT22;8163;50.118;5.342;2023-03-04T04:29:48;0.20;99.90
16118;DHT22;8163;50.118;5.342;2023-03-04T04:32:15;0.20;99.90
16118;DHT22;8163;50.118;5.342;2023-03-04T04:34:42;0.20;99.90
16118;DHT22;8163;50.118;5.342;2023-03-04T04:37:09;0.20;99.90
16118;DHT22;8163;50.118;5.342;2023-03-04T04:39:36;0.20;99.90
16118;DHT22;8163;50.118;5.342;2023-03-04T04:42:05;0.30;99.90
16118;DHT22;8163;50.118;5.342;2023-03-04T04:44:31;0.30;99.90
16118;DHT22;8163;50.118;5.342;2023-03-04T04:46:59;0.30;99.90
16118;DHT22;8163;50.118;5.342;2023-03-04T04:49:26;0.30;99.90
16118;DHT22;8163;50.118;5.342;2023-03-04T04:51:53;0.30;99.90
16118;DHT22;8163;50.118;5.342;2023-03-04T04:54:21;0.30;99.90
16118;DHT22;8163;50.118;5.342;2023-03-04T04:56:50;0.40;99.90
16118;DHT22;8163;50.118;5.342;2023-03-04T04:59:18;0.40;99.90
16118;DHT22;8163;50.118;5.342;2023-03-04T05:01:47;0.40;99.90
16118;DHT22;8163;50.118;5.342;2023-03-04T05:04:14;0.40;99.90
16118;DHT22;8163;50.118;5.342;2023-03-04T05:06:41;0.40;99.90
16118;DHT22;8163;50.118;5.342;2023-03-04T05:09:08;0.50;99.90
16118;DHT22;8163;50.118;5.342;2023-03-04T05:11:35;0.40;99.90
16118;DHT22;8163;50.118;5.342;2023-03-04T05:14:04;0.40;99.90
16118;DHT22;8163;50.118;5.342;2023-03-04T05:16:32;0.50;99.90
16118;DHT22;8163;50.118;5.342;2023-03-04T05:19:00;0.50;99.90
16118;DHT22;8163;50.118;5.342;2023-03-04T05:21:27;0.50;99.90
16118;DHT22;8163;50.118;5.342;2023-03-04T05:23:54;0.50;99.90
16118;DHT22;8163;50.118;5.342;2023-03-04T05:26:21;0.50;99.90
16118;DHT22;8163;50.118;5.342;2023-03-04T05:28:48;0.50;99.90
16118;DHT22;8163;50.118;5.342;2023-03-04T05:31:15;0.60;99.90
16118;DHT22;8163;50.118;5.342;2023-03-04T05:33:44;0.50;99.90
16118;DHT22;8163;50.118;5.342;2023-03-04T05:36:11;0.60;99.90
16118;DHT22;8163;50.118;5.342;2023-03-04T05:38:38;0.50;99.90
16118;DHT22;8163;50.118;5.342;2023-03-04T05:41:06;0.60;99.90
16118;DHT22;8163;50.118;5.342;2023-03-04T05:43:34;0.60;99.90
16118;DHT22;8163;50.118;5.342;2023-03-04T05:46:04;0.60;99.90
16118;DHT22;8163;50.118;5.342;2023-03-04T05:48:31;0.60;99.90
16118;DHT22;8163;50.118;5.342;2023-03-04T05:51:00;0.60;99.90
16118;DHT22;8163;50.118;5.342;2023-03-04T05:53:28;0.60;99.90
16118;DHT22;8163;50.118;5.342;2023-03-04T05:55:55;0.70;99.90
16118;DHT22;8163;50.118;5.342;2023-03-04T05:58:23;0.60;99.90
16118;DHT22;8163;50.118;5.342;2023-03-04T06:00:51;0.60;99.90
16118;DHT22;8163;50.118;5.342;2023-03-04T06:03:21;0.60;99.90
16118;DHT22;8163;50.118;5.342;2023-03-04T06:05:48;0.70;99.90
16118;DHT22;8163;50.118;5.342;2023-03-04T06:08:16;0.60;99.90
16118;DHT22;8163;50.118;5.342;2023-03-04T06:10:43;0.60;99.90
16118;DHT22;8163;50.118;5.342;2023-03-04T06:13:11;0.60;99.90
16118;DHT22;8163;50.118;5.342;2023-03-04T06:15:38;0.60;99.90
16118;DHT22;8163;50.118;5.342;2023-03-04T06:18:06;0.70;99.90
16118;DHT22;8163;50.118;5.342;2023-03-04T06:20:33;0.60;99.90
16118;DHT22;8163;50.118;5.342;2023-03-04T06:23:01;0.70;99.90
16118;DHT22;8163;50.118;5.342;2023-03-04T06:25:29;0.70;99.90
16118;DHT22;8163;50.118;5.342;2023-03-04T06:27:56;0.70;99.90
16118;DHT22;8163;50.118;5.342;2023-03-04T06:30:23;0.70;99.90
16118;DHT22;8163;50.118;5.342;2023-03-04T06:32:52;0.70;99.90
16118;DHT22;8163;50.118;5.342;2023-03-04T06:35:21;0.70;99.90
16118;DHT22;8163;50.118;5.342;2023-03-04T06:37:48;0.70;99.90
16118;DHT22;8163;50.118;5.342;2023-03-04T06:40:15;0.80;99.90
16118;DHT22;8163;50.118;5.342;2023-03-04T06:42:43;0.80;99.90
16118;DHT22;8163;50.118;5.342;2023-03-04T06:45:11;0.80;99.90
16118;DHT22;8163;50.118;5.342;2023-03-04T06:47:38;0.80;99.90
16118;DHT22;8163;50.118;5.342;2023-03-04T06:50:05;0.80;99.90
16118;DHT22;8163;50.118;5.342;2023-03-04T06:52:32;0.90;99.90
16118;DHT22;8163;50.118;5.342;2023-03-04T06:55:05;0.90;99.90
16118;DHT22;8163;50.118;5.342;2023-03-04T06:57:32;0.90;99.90
16118;DHT22;8163;50.118;5.342;2023-03-04T07:00:01;0.90;99.90
16118;DHT22;8163;50.118;5.342;2023-03-04T07:02:28;1.00;99.90
16118;DHT22;8163;50.118;5.342;2023-03-04T07:04:57;1.00;99.90
16118;DHT22;8163;50.118;5.342;2023-03-04T07:07:24;1.00;99.90
16118;DHT22;8163;50.118;5.342;2023-03-04T07:09:52;1.00;99.90
16118;DHT22;8163;50.118;5.342;2023-03-04T07:12:18;1.10;99.90
16118;DHT22;8163;50.118;5.342;2023-03-04T07:14:45;1.10;99.90
16118;DHT22;8163;50.118;5.342;2023-03-04T07:17:14;1.10;99.90
16118;DHT22;8163;50.118;5.342;2023-03-04T07:19:42;1.10;99.90
16118;DHT22;8163;50.118;5.342;2023-03-04T07:22:09;1.20;99.90
16118;DHT22;8163;50.118;5.342;2023-03-04T07:24:36;1.20;99.90
16118;DHT22;8163;50.118;5.342;2023-03-04T07:27:04;1.20;99.90
16118;DHT22;8163;50.118;5.342;2023-03-04T07:29:31;1.30;99.90
16118;DHT22;8163;50.118;5.342;2023-03-04T07:31:58;1.30;99.90
16118;DHT22;8163;50.118;5.342;2023-03-04T07:34:26;1.30;99.90
16118;DHT22;8163;50.118;5.342;2023-03-04T07:36:53;1.30;99.90
16118;DHT22;8163;50.118;5.342;2023-03-04T07:39:21;1.30;99.90
16118;DHT22;8163;50.118;5.342;2023-03-04T07:41:47;1.40;99.90
16118;DHT22;8163;50.118;5.342;2023-03-04T07:44:16;1.40;99.90
16118;DHT22;8163;50.118;5.342;2023-03-04T07:46:43;1.40;99.90
16118;DHT22;8163;50.118;5.342;2023-03-04T07:49:12;1.50;99.90
16118;DHT22;8163;50.118;5.342;2023-03-04T07:51:40;1.40;99.90
16118;DHT22;8163;50.118;5.342;2023-03-04T07:54:08;1.50;99.90
16118;DHT22;8163;50.118;5.342;2023-03-04T07:56:35;1.50;99.90
16118;DHT22;8163;50.118;5.342;2023-03-04T07:59:04;1.50;99.90
16118;DHT22;8163;50.118;5.342;2023-03-04T08:01:32;1.60;99.90
16118;DHT22;8163;50.118;5.342;2023-03-04T08:04:00;1.60;99.90
16118;DHT22;8163;50.118;5.342;2023-03-04T08:06:28;1.60;99.90
16118;DHT22;8163;50.118;5.342;2023-03-04T08:08:57;1.70;99.90
16118;DHT22;8163;50.118;5.342;2023-03-04T08:11:26;1.70;99.90
16118;DHT22;8163;50.118;5.342;2023-03-04T08:13:53;1.70;99.90
16118;DHT22;8163;50.118;5.342;2023-03-04T08:16:21;1.80;99.90
16118;DHT22;8163;50.118;5.342;2023-03-04T08:18:51;1.80;99.90
16118;DHT22;8163;50.118;5.342;2023-03-04T08:21:21;1.80;99.90
16118;DHT22;8163;50.118;5.342;2023-03-04T08:23:48;1.80;99.90
16118;DHT22;8163;50.118;5.342;2023-03-04T08:26:20;1.80;99.90
16118;DHT22;8163;50.118;5.342;2023-03-04T08:28:47;1.80;99.90
16118;DHT22;8163;50.118;5.342;2023-03-04T08:31:15;1.90;99.90
16118;DHT22;8163;50.118;5.342;2023-03-04T08:33:44;1.90;99.90
16118;DHT22;8163;50.118;5.342;2023-03-04T08:36:12;1.90;99.90
16118;DHT22;8163;50.118;5.342;2023-03-04T08:38:39;2.00;99.90
16118;DHT22;8163;50.118;5.342;2023-03-04T08:41:06;2.00;99.90
16118;DHT22;8163;50.118;5.342;2023-03-04T08:43:35;2.00;99.90
16118;DHT22;8163;50.118;5.342;2023-03-04T08:46:02;2.00;99.90
16118;DHT22;8163;50.118;5.342;2023-03-04T08:48:30;2.00;99.90
16118;DHT22;8163;50.118;5.342;2023-03-04T08:50:57;2.10;99.90
16118;DHT22;8163;50.118;5.342;2023-03-04T08:53:25;2.10;99.90
16118;DHT22;8163;50.118;5.342;2023-03-04T08:55:52;2.10;99.90
16118;DHT22;8163;50.118;5.342;2023-03-04T08:58:20;2.20;99.90
16118;DHT22;8163;50.118;5.342;2023-03-04T09:00:48;2.20;99.90
16118;DHT22;8163;50.118;5.342;2023-03-04T09:03:17;2.20;99.90
16118;DHT22;8163;50.118;5.342;2023-03-04T09:05:47;2.30;99.90
16118;DHT22;8163;50.118;5.342;2023-03-04T09:08:15;2.30;99.90
16118;DHT22;8163;50.118;5.342;2023-03-04T09:10:45;2.40;99.90
16118;DHT22;8163;50.118;5.342;2023-03-04T09:13:13;2.40;99.90
16118;DHT22;8163;50.118;5.342;2023-03-04T09:15:43;2.50;99.90
16118;DHT22;8163;50.118;5.342;2023-03-04T09:18:12;2.50;99.90
16118;DHT22;8163;50.118;5.342;2023-03-04T09:20:39;2.50;99.90
16118;DHT22;8163;50.118;5.342;2023-03-04T09:23:07;2.50;99.90
16118;DHT22;8163;50.118;5.342;2023-03-04T09:25:35;2.60;99.90
16118;DHT22;8163;50.118;5.342;2023-03-04T09:28:02;2.60;99.90
16118;DHT22;8163;50.118;5.342;2023-03-04T09:30:29;2.70;99.90
16118;DHT22;8163;50.118;5.342;2023-03-04T09:32:57;2.70;99.90
16118;DHT22;8163;50.118;5.342;2023-03-04T09:35:26;2.80;99.90
16118;DHT22;8163;50.118;5.342;2023-03-04T09:37:54;2.90;99.90
16118;DHT22;8163;50.118;5.342;2023-03-04T09:40:25;2.90;99.90
16118;DHT22;8163;50.118;5.342;2023-03-04T09:42:58;3.00;99.90
16118;DHT22;8163;50.118;5.342;2023-03-04T09:45:33;3.00;99.90
16118;DHT22;8163;50.118;5.342;2023-03-04T09:48:02;3.00;99.90
16118;DHT22;8163;50.118;5.342;2023-03-04T09:50:33;3.00;99.90
16118;DHT22;8163;50.118;5.342;2023-03-04T09:53:11;3.10;99.90
16118;DHT22;8163;50.118;5.342;2023-03-04T09:55:41;3.10;99.90
16118;DHT22;8163;50.118;5.342;2023-03-04T09:58:20;3.10;99.90
16118;DHT22;8163;50.118;5.342;2023-03-04T10:00:55;3.10;99.90
16118;DHT22;8163;50.118;5.342;2023-03-04T10:03:26;3.10;99.90
16118;DHT22;8163;50.118;5.342;2023-03-04T10:05:56;3.10;99.90
16118;DHT22;8163;50.118;5.342;2023-03-04T10:08:40;3.10;99.90
16118;DHT22;8163;50.118;5.342;2023-03-04T10:11:13;3.10;99.90
16118;DHT22;8163;50.118;5.342;2023-03-04T10:13:50;3.10;99.90
16118;DHT22;8163;50.118;5.342;2023-03-04T10:16:23;3.20;99.90
16118;DHT22;8163;50.118;5.342;2023-03-04T10:18:55;3.20;99.90
16118;DHT22;8163;50.118;5.342;2023-03-04T10:21:31;3.20;99.90
16118;DHT22;8163;50.118;5.342;2023-03-04T10:24:00;3.20;99.90
16118;DHT22;8163;50.118;5.342;2023-03-04T10:26:31;3.20;99.90
16118;DHT22;8163;50.118;5.342;2023-03-04T10:28:58;3.30;99.90
16118;DHT22;8163;50.118;5.342;2023-03-04T10:31:31;3.30;99.90
16118;DHT22;8163;50.118;5.342;2023-03-04T10:34:00;3.30;99.90
16118;DHT22;8163;50.118;5.342;2023-03-04T10:39:31;3.30;99.90
16118;DHT22;8163;50.118;5.342;2023-03-04T10:42:01;3.40;99.90
16118;DHT22;8163;50.118;5.342;2023-03-04T10:44:30;3.50;99.90
16118;DHT22;8163;50.118;5.342;2023-03-04T10:46:57;3.50;99.90
16118;DHT22;8163;50.118;5.342;2023-03-04T10:49:26;3.60;99.90
16118;DHT22;8163;50.118;5.342;2023-03-04T10:51:54;3.60;99.90
16118;DHT22;8163;50.118;5.342;2023-03-04T10:54:30;3.70;99.90
16118;DHT22;8163;50.118;5.342;2023-03-04T10:56:59;3.80;99.90
16118;DHT22;8163;50.118;5.342;2023-03-04T10:59:33;3.80;99.90
16118;DHT22;8163;50.118;5.342;2023-03-04T11:02:18;3.80;99.90
16118;DHT22;8163;50.118;5.342;2023-03-04T11:04:50;3.90;99.90
16118;DHT22;8163;50.118;5.342;2023-03-04T11:07:19;4.00;99.90
16118;DHT22;8163;50.118;5.342;2023-03-04T11:09:49;4.00;99.90
16118;DHT22;8163;50.118;5.342;2023-03-04T11:12:19;4.10;99.90
16118;DHT22;8163;50.118;5.342;2023-03-04T11:14:50;4.10;99.90
16118;DHT22;8163;50.118;5.342;2023-03-04T11:17:23;4.00;99.90
16118;DHT22;8163;50.118;5.342;2023-03-04T11:19:56;4.10;99.90
16118;DHT22;8163;50.118;5.342;2023-03-04T11:22:31;4.10;99.90
16118;DHT22;8163;50.118;5.342;2023-03-04T11:25:04;4.00;99.90
16118;DHT22;8163;50.118;5.342;2023-03-04T11:27:39;4.00;99.90
16118;DHT22;8163;50.118;5.342;2023-03-04T11:30:25;4.10;99.90
16118;DHT22;8163;50.118;5.342;2023-03-04T11:33:03;4.10;99.90
16118;DHT22;8163;50.118;5.342;2023-03-04T11:35:43;4.10;99.90
16118;DHT22;8163;50.118;5.342;2023-03-04T11:38:16;4.10;99.90
16118;DHT22;8163;50.118;5.342;2023-03-04T11:40:48;4.10;99.90
16118;DHT22;8163;50.118;5.342;2023-03-04T11:43:27;4.20;99.90
16118;DHT22;8163;50.118;5.342;2023-03-04T11:49:03;4.20;99.90
16118;DHT22;8163;50.118;5.342;2023-03-04T11:51:36;4.20;99.90
16118;DHT22;8163;50.118;5.342;2023-03-04T11:54:16;4.20;99.90
16118;DHT22;8163;50.118;5.342;2023-03-04T11:56:50;4.20;99.90
16118;DHT22;8163;50.118;5.342;2023-03-04T11:59:50;4.20;99.90
16118;DHT22;8163;50.118;5.342;2023-03-04T12:02:22;4.30;99.90
16118;DHT22;8163;50.118;5.342;2023-03-04T12:05:25;4.30;99.90
16118;DHT22;8163;50.118;5.342;2023-03-04T12:08:12;4.40;99.90
16118;DHT22;8163;50.118;5.342;2023-03-04T12:10:47;4.50;99.90
16118;DHT22;8163;50.118;5.342;2023-03-04T12:16:42;4.50;99.90
16118;DHT22;8163;50.118;5.342;2023-03-04T12:19:25;4.50;99.90
16118;DHT22;8163;50.118;5.342;2023-03-04T12:22:08;4.50;99.90
16118;DHT22;8163;50.118;5.342;2023-03-04T12:25:01;4.50;99.90
16118;DHT22;8163;50.118;5.342;2023-03-04T12:27:33;4.50;99.90
16118;DHT22;8163;50.118;5.342;2023-03-04T12:30:12;4.50;99.90
16118;DHT22;8163;50.118;5.342;2023-03-04T12:32:48;4.50;99.90
16118;DHT22;8163;50.118;5.342;2023-03-04T12:35:30;4.60;99.90
16118;DHT22;8163;50.118;5.342;2023-03-04T12:38:17;4.70;99.90
16118;DHT22;8163;50.118;5.342;2023-03-04T12:40:53;4.70;99.90
16118;DHT22;8163;50.118;5.342;2023-03-04T12:43:37;4.70;99.90
16118;DHT22;8163;50.118;5.342;2023-03-04T12:46:14;4.70;99.90
16118;DHT22;8163;50.118;5.342;2023-03-04T12:48:51;4.70;99.90
16118;DHT22;8163;50.118;5.342;2023-03-04T12:51:28;4.70;99.90
16118;DHT22;8163;50.118;5.342;2023-03-04T12:54:10;4.60;99.90
16118;DHT22;8163;50.118;5.342;2023-03-04T12:56:42;4.60;99.90
16118;DHT22;8163;50.118;5.342;2023-03-04T12:59:14;4.60;99.90
16118;DHT22;8163;50.118;5.342;2023-03-04T13:01:48;4.60;99.90
16118;DHT22;8163;50.118;5.342;2023-03-04T13:04:22;4.60;99.90
16118;DHT22;8163;50.118;5.342;2023-03-04T13:07:06;4.50;99.90
16118;DHT22;8163;50.118;5.342;2023-03-04T13:09:46;4.50;99.90
16118;DHT22;8163;50.118;5.342;2023-03-04T13:12:15;4.60;99.90
16118;DHT22;8163;50.118;5.342;2023-03-04T13:17:59;4.50;99.90
16118;DHT22;8163;50.118;5.342;2023-03-04T13:20:37;4.50;99.90
16118;DHT22;8163;50.118;5.342;2023-03-04T13:23:22;4.50;99.90
16118;DHT22;8163;50.118;5.342;2023-03-04T13:26:15;4.50;99.90
16118;DHT22;8163;50.118;5.342;2023-03-04T13:28:44;4.50;99.90
16118;DHT22;8163;50.118;5.342;2023-03-04T13:31:18;4.50;99.90
16118;DHT22;8163;50.118;5.342;2023-03-04T13:33:58;4.60;99.90
16118;DHT22;8163;50.118;5.342;2023-03-04T13:36:52;4.60;99.90
16118;DHT22;8163;50.118;5.342;2023-03-04T13:39:24;4.70;99.90
16118;DHT22;8163;50.118;5.342;2023-03-04T13:41:53;4.70;99.90
16118;DHT22;8163;50.118;5.342;2023-03-04T13:44:58;4.70;99.90
16118;DHT22;8163;50.118;5.342;2023-03-04T13:47:43;4.70;99.90
16118;DHT22;8163;50.118;5.342;2023-03-04T13:56:31;4.70;99.90
16118;DHT22;8163;50.118;5.342;2023-03-04T14:36:43;4.60;98.60
16118;DHT22;8163;50.118;5.342;2023-03-04T14:39:15;4.60;98.80
16118;DHT22;8163;50.118;5.342;2023-03-04T14:41:44;4.70;99.50
16118;DHT22;8163;50.118;5.342;2023-03-04T14:44:20;4.70;99.90
16118;DHT22;8163;50.118;5.342;2023-03-04T14:46:53;4.70;99.90
16118;DHT22;8163;50.118;5.342;2023-03-04T14:49:22;4.70;99.90
16118;DHT22;8163;50.118;5.342;2023-03-04T14:51:51;4.70;99.90
16118;DHT22;8163;50.118;5.342;2023-03-04T14:54:37;4.70;99.90
16118;DHT22;8163;50.118;5.342;2023-03-04T14:57:21;4.70;99.90
16118;DHT22;8163;50.118;5.342;2023-03-04T14:59:49;4.70;99.90
16118;DHT22;8163;50.118;5.342;2023-03-04T15:02:22;4.80;99.90
16118;DHT22;8163;50.118;5.342;2023-03-04T15:04:54;4.70;99.90
16118;DHT22;8163;50.118;5.342;2023-03-04T15:07:29;4.70;99.90
16118;DHT22;8163;50.118;5.342;2023-03-04T15:09:56;4.70;99.90
16118;DHT22;8163;50.118;5.342;2023-03-04T15:12:26;4.70;99.90
16118;DHT22;8163;50.118;5.342;2023-03-04T15:14:55;4.70;99.90
16118;DHT22;8163;50.118;5.342;2023-03-04T15:17:29;4.70;99.90
16118;DHT22;8163;50.118;5.342;2023-03-04T15:19:59;4.70;99.90
16118;DHT22;8163;50.118;5.342;2023-03-04T15:22:28;4.70;99.90
16118;DHT22;8163;50.118;5.342;2023-03-04T15:24:55;4.70;99.90
16118;DHT22;8163;50.118;5.342;2023-03-04T15:27:23;4.70;99.90
16118;DHT22;8163;50.118;5.342;2023-03-04T15:29:51;4.70;99.90
16118;DHT22;8163;50.118;5.342;2023-03-04T15:32:21;4.60;99.90
16118;DHT22;8163;50.118;5.342;2023-03-04T15:34:48;4.60;99.90
16118;DHT22;8163;50.118;5.342;2023-03-04T15:37:19;4.60;99.90
16118;DHT22;8163;50.118;5.342;2023-03-04T15:39:49;4.60;99.90
16118;DHT22;8163;50.118;5.342;2023-03-04T15:42:17;4.60;99.90
16118;DHT22;8163;50.118;5.342;2023-03-04T15:44:44;4.60;99.90
16118;DHT22;8163;50.118;5.342;2023-03-04T15:47:12;4.60;99.90
16118;DHT22;8163;50.118;5.342;2023-03-04T15:49:39;4.70;99.90
16118;DHT22;8163;50.118;5.342;2023-03-04T15:52:12;4.60;99.90
16118;DHT22;8163;50.118;5.342;2023-03-04T15:54:40;4.60;99.90
16118;DHT22;8163;50.118;5.342;2023-03-04T15:57:15;4.60;99.90
16118;DHT22;8163;50.118;5.342;2023-03-04T15:59:44;4.60;99.90
16118;DHT22;8163;50.118;5.342;2023-03-04T16:02:16;4.60;99.90
16118;DHT22;8163;50.118;5.342;2023-03-04T16:04:44;4.60;99.90
16118;DHT22;8163;50.118;5.342;2023-03-04T16:07:15;4.60;99.90
16118;DHT22;8163;50.118;5.342;2023-03-04T16:09:45;4.60;99.90
16118;DHT22;8163;50.118;5.342;2023-03-04T16:12:17;4.60;99.90
16118;DHT22;8163;50.118;5.342;2023-03-04T16:14:44;4.60;99.90
16118;DHT22;8163;50.118;5.342;2023-03-04T16:17:12;4.50;99.90
16118;DHT22;8163;50.118;5.342;2023-03-04T16:19:40;4.50;99.90
16118;DHT22;8163;50.118;5.342;2023-03-04T16:22:09;4.50;99.90
16118;DHT22;8163;50.118;5.342;2023-03-04T16:24:38;4.50;99.90
16118;DHT22;8163;50.118;5.342;2023-03-04T16:27:07;4.50;99.90
16118;DHT22;8163;50.118;5.342;2023-03-04T16:29:38;4.50;99.90
16118;DHT22;8163;50.118;5.342;2023-03-04T16:32:05;4.50;99.90
16118;DHT22;8163;50.118;5.342;2023-03-04T16:34:32;4.40;99.90
16118;DHT22;8163;50.118;5.342;2023-03-04T16:37:04;4.40;99.90
16118;DHT22;8163;50.118;5.342;2023-03-04T16:39:33;4.40;99.90
16118;DHT22;8163;50.118;5.342;2023-03-04T16:42:01;4.40;99.90
16118;DHT22;8163;50.118;5.342;2023-03-04T16:44:28;4.40;99.90
16118;DHT22;8163;50.118;5.342;2023-03-04T16:46:56;4.30;99.90
16118;DHT22;8163;50.118;5.342;2023-03-04T16:49:23;4.40;99.90
16118;DHT22;8163;50.118;5.342;2023-03-04T16:51:53;4.40;99.90
16118;DHT22;8163;50.118;5.342;2023-03-04T16:54:26;4.40;99.90
16118;DHT22;8163;50.118;5.342;2023-03-04T16:56:55;4.40;99.90
16118;DHT22;8163;50.118;5.342;2023-03-04T16:59:25;4.30;99.90
16118;DHT22;8163;50.118;5.342;2023-03-04T17:01:53;4.30;99.90
16118;DHT22;8163;50.118;5.342;2023-03-04T17:04:21;4.30;99.90
16118;DHT22;8163;50.118;5.342;2023-03-04T17:06:49;4.30;99.90
16118;DHT22;8163;50.118;5.342;2023-03-04T17:09:16;4.20;99.90
16118;DHT22;8163;50.118;5.342;2023-03-04T17:11:44;4.20;99.90